createdAt,value
2019-05-05T00:00:08.590Z,101083.44
2019-05-05T00:00:55.038Z,101081.55
2019-05-05T00:01:51.705Z,101083.44
2019-05-05T00:02:40.671Z,101084.24
2019-05-05T00:03:27.186Z,101090.70
2019-05-05T00:04:25.221Z,101096.90
2019-05-05T00:05:17.075Z,101100.94
2019-05-05T00:05:54.760Z,101099.33
2019-05-05T00:06:30.874Z,101098.78
2019-05-05T00:07:07.012Z,101101.75
2019-05-05T00:07:44.843Z,101096.36
2019-05-05T00:08:21.582Z,101088.53
2019-05-05T00:08:57.422Z,101085.59
2019-05-05T00:09:34.739Z,101096.91
2019-05-05T00:10:15.121Z,101097.67
2019-05-05T00:10:59.390Z,101103.06
2019-05-05T00:11:44.484Z,101108.71
2019-05-05T00:12:47.323Z,101115.17
2019-05-05T00:13:34.674Z,101109.52
2019-05-05T00:14:16.670Z,101114.09
2019-05-05T00:15:11.400Z,101111.94
2019-05-05T00:16:06.278Z,101106.56
2019-05-05T00:16:51.060Z,101117.05
2019-05-05T00:17:27.457Z,101114.36
2019-05-05T00:18:05.267Z,101116.52
2019-05-05T00:18:41.248Z,101120.55
2019-05-05T00:19:29.724Z,101121.90
2019-05-05T00:19:55.019Z,101120.28
2019-05-05T00:20:31.000Z,101119.48
2019-05-05T00:21:07.051Z,101132.93
2019-05-05T00:21:44.572Z,101133.47
2019-05-05T00:22:20.725Z,101132.13
2019-05-05T00:22:56.582Z,101127.02
2019-05-05T00:23:34.566Z,101127.02
2019-05-05T00:24:10.316Z,101128.63
2019-05-05T00:24:46.295Z,101131.59
2019-05-05T00:25:22.128Z,101134.84
2019-05-05T00:25:57.999Z,101137.27
2019-05-05T00:26:34.859Z,101135.66
2019-05-05T00:27:11.186Z,101136.20
2019-05-05T00:27:46.980Z,101142.39
2019-05-05T00:28:24.855Z,101135.93
2019-05-05T00:29:00.618Z,101136.20
2019-05-05T00:29:36.499Z,101142.39
2019-05-05T00:30:14.305Z,101142.66
2019-05-05T00:30:50.167Z,101144.55
2019-05-05T00:31:26.210Z,101144.81
2019-05-05T00:32:02.059Z,101143.47
2019-05-05T00:32:38.263Z,101138.89
2019-05-05T00:33:14.574Z,101140.23
2019-05-05T00:33:50.933Z,101137.30
2019-05-05T00:34:26.856Z,101141.04
2019-05-05T00:35:04.343Z,101133.80
2019-05-05T00:35:40.323Z,101135.66
2019-05-05T00:36:16.202Z,101134.84
2019-05-05T00:36:52.124Z,101139.43
2019-05-05T00:37:28.003Z,101139.97
2019-05-05T00:38:05.111Z,101143.23
2019-05-05T00:38:41.436Z,101140.23
2019-05-05T00:39:17.531Z,101144.27
2019-05-05T00:39:54.319Z,101140.77
2019-05-05T00:40:30.332Z,101148.04
2019-05-05T00:41:06.260Z,101145.35
2019-05-05T00:41:42.069Z,101147.77
2019-05-05T00:42:17.925Z,101148.04
2019-05-05T00:42:54.734Z,101144.81
2019-05-05T00:43:30.892Z,101149.39
2019-05-05T00:44:06.742Z,101149.92
2019-05-05T00:44:44.500Z,101155.84
2019-05-05T00:45:20.304Z,101148.04
2019-05-05T00:46:01.278Z,101161.50
2019-05-05T00:47:05.298Z,101149.39
2019-05-05T00:47:46.466Z,101152.34
2019-05-05T00:48:29.630Z,101152.08
2019-05-05T00:49:05.494Z,101155.31
2019-05-05T00:49:46.444Z,101156.66
2019-05-05T00:50:21.293Z,101160.42
2019-05-05T00:50:57.263Z,101160.97
2019-05-05T00:51:34.803Z,101166.88
2019-05-05T00:52:11.135Z,101164.73
2019-05-05T00:52:47.151Z,101170.92
2019-05-05T00:53:24.996Z,101172.81
2019-05-05T00:54:00.820Z,101186.00
2019-05-05T00:54:36.721Z,101184.38
2019-05-05T00:55:12.584Z,101185.19
2019-05-05T00:55:49.140Z,101187.88
2019-05-05T00:56:26.000Z,101186.27
2019-05-05T00:57:01.881Z,101191.39
2019-05-05T00:57:37.879Z,101196.23
2019-05-05T00:58:14.374Z,101192.73
2019-05-05T00:58:55.783Z,101199.73
2019-05-05T00:59:31.652Z,101198.38
2019-05-05T01:00:15.220Z,101204.84
2019-05-05T01:00:57.061Z,101209.69
2019-05-05T01:02:04.628Z,101205.92
2019-05-05T01:02:44.899Z,101214.00
2019-05-05T01:03:24.292Z,101218.04
2019-05-05T01:04:25.834Z,101215.08
2019-05-05T01:05:19.373Z,101217.77
2019-05-05T01:06:08.218Z,101221.53
2019-05-05T01:06:45.388Z,101225.58
2019-05-05T01:07:21.665Z,101223.15
2019-05-05T01:07:58.636Z,101230.96
2019-05-05T01:08:35.232Z,101229.34
2019-05-05T01:09:15.625Z,101234.19
2019-05-05T01:09:51.702Z,101233.38
2019-05-05T01:10:28.431Z,101235.27
2019-05-05T01:11:04.544Z,101230.42
2019-05-05T01:11:41.036Z,101234.77
2019-05-05T01:12:21.346Z,101237.76
2019-05-05T01:12:58.286Z,101236.68
2019-05-05T01:13:35.869Z,101241.80
2019-05-05T01:14:14.330Z,101246.91
2019-05-05T01:14:50.633Z,101245.84
2019-05-05T01:15:26.710Z,101257.16
2019-05-05T01:16:04.804Z,101254.45
2019-05-05T01:16:45.609Z,101250.69
2019-05-05T01:17:21.928Z,101255.80
2019-05-05T01:18:04.695Z,101252.84
2019-05-05T01:18:40.941Z,101251.77
2019-05-05T01:19:19.722Z,101250.42
2019-05-05T01:20:16.424Z,101252.04
2019-05-05T01:20:55.214Z,101261.20
2019-05-05T01:21:39.597Z,101253.39
2019-05-05T01:22:15.614Z,101257.70
2019-05-05T01:22:55.435Z,101262.02
2019-05-05T01:23:39.685Z,101256.63
2019-05-05T01:24:16.350Z,101254.73
2019-05-05T01:24:52.562Z,101262.58
2019-05-05T01:25:29.286Z,101262.85
2019-05-05T01:26:05.312Z,101262.85
2019-05-05T01:26:42.211Z,101257.73
2019-05-05T01:27:19.021Z,101266.08
2019-05-05T01:27:55.046Z,101262.58
2019-05-05T01:28:31.883Z,101262.05
2019-05-05T01:29:14.704Z,101260.97
2019-05-05T01:29:54.602Z,101260.16
2019-05-05T01:30:34.988Z,101260.16
2019-05-05T01:31:14.747Z,101258.27
2019-05-05T01:31:54.448Z,101261.78
2019-05-05T01:32:37.259Z,101261.23
2019-05-05T01:33:21.123Z,101258.27
2019-05-05T01:34:18.801Z,101250.47
2019-05-05T01:34:55.790Z,101254.50
2019-05-05T01:35:34.217Z,101248.31
2019-05-05T01:36:14.905Z,101251.54
2019-05-05T01:36:57.419Z,101250.20
2019-05-05T01:37:38.405Z,101251.00
2019-05-05T01:38:20.867Z,101251.27
2019-05-05T01:39:27.006Z,101252.89
2019-05-05T01:40:28.714Z,101247.23
2019-05-05T01:41:10.231Z,101245.88
2019-05-05T01:41:50.852Z,101240.23
2019-05-05T01:42:27.039Z,101245.08
2019-05-05T01:43:05.304Z,101234.00
2019-05-05T01:43:42.124Z,101239.39
2019-05-05T01:44:20.592Z,101239.69
2019-05-05T01:44:57.242Z,101237.80
2019-05-05T01:45:34.732Z,101235.92
2019-05-05T01:46:14.195Z,101233.49
2019-05-05T01:46:50.693Z,101236.72
2019-05-05T01:47:26.728Z,101229.99
2019-05-05T01:48:07.478Z,101238.61
2019-05-05T01:48:44.509Z,101231.06
2019-05-05T01:49:20.699Z,101229.45
2019-05-05T01:49:56.927Z,101232.41
2019-05-05T01:50:34.918Z,101231.34
2019-05-05T01:51:11.590Z,101235.38
2019-05-05T01:51:48.080Z,101235.38
2019-05-05T01:52:25.458Z,101226.22
2019-05-05T01:53:04.783Z,101227.30
2019-05-05T01:53:41.356Z,101229.45
2019-05-05T01:54:17.403Z,101221.64
2019-05-05T01:54:54.763Z,101219.21
2019-05-05T01:55:34.682Z,101224.33
2019-05-05T01:56:11.542Z,101220.83
2019-05-05T01:56:48.439Z,101222.72
2019-05-05T01:57:27.053Z,101220.02
2019-05-05T01:58:04.717Z,101217.33
2019-05-05T01:58:44.440Z,101220.02
2019-05-05T01:59:20.591Z,101220.02
2019-05-05T01:59:56.851Z,101218.94
2019-05-05T02:00:34.750Z,101222.44
2019-05-05T02:01:10.824Z,101216.78
2019-05-05T02:01:46.863Z,101217.89
2019-05-05T02:02:25.097Z,101214.66
2019-05-05T02:03:04.511Z,101217.62
2019-05-05T02:03:44.352Z,101217.62
2019-05-05T02:04:22.352Z,101214.39
2019-05-05T02:04:58.511Z,101216.27
2019-05-05T02:05:35.143Z,101212.50
2019-05-05T02:06:11.828Z,101215.70
2019-05-05T02:06:48.036Z,101216.00
2019-05-05T02:07:25.107Z,101213.84
2019-05-05T02:08:01.694Z,101216.27
2019-05-05T02:08:38.927Z,101209.27
2019-05-05T02:09:16.093Z,101208.19
2019-05-05T02:09:55.188Z,101205.23
2019-05-05T02:10:30.786Z,101204.69
2019-05-05T02:11:07.260Z,101197.95
2019-05-05T02:11:45.273Z,101200.38
2019-05-05T02:12:24.661Z,101197.41
2019-05-05T02:13:01.126Z,101193.10
2019-05-05T02:13:37.272Z,101191.22
2019-05-05T02:14:17.780Z,101192.02
2019-05-05T02:14:55.143Z,101197.41
2019-05-05T02:15:34.187Z,101194.15
2019-05-05T02:16:10.078Z,101195.80
2019-05-05T02:16:46.571Z,101187.41
2019-05-05T02:17:26.600Z,101188.77
2019-05-05T02:18:04.543Z,101190.41
2019-05-05T02:18:42.078Z,101186.06
2019-05-05T02:19:18.307Z,101186.06
2019-05-05T02:19:55.048Z,101184.45
2019-05-05T02:20:57.410Z,101182.02
2019-05-05T02:21:38.463Z,101179.63
2019-05-05T02:22:14.860Z,101186.37
2019-05-05T02:22:51.598Z,101179.63
2019-05-05T02:23:28.421Z,101178.83
2019-05-05T02:24:05.520Z,101177.74
2019-05-05T02:24:44.416Z,101177.20
2019-05-05T02:25:25.121Z,101179.89
2019-05-05T02:26:01.801Z,101175.05
2019-05-05T02:26:38.297Z,101172.89
2019-05-05T02:27:15.365Z,101169.66
2019-05-05T02:27:51.338Z,101174.52
2019-05-05T02:28:34.648Z,101167.77
2019-05-05T02:29:21.515Z,101173.43
2019-05-05T02:30:06.480Z,101164.53
2019-05-05T02:30:49.947Z,101165.34
2019-05-05T02:31:45.386Z,101167.76
2019-05-05T02:32:38.095Z,101160.75
2019-05-05T02:33:16.610Z,101162.36
2019-05-05T02:33:56.887Z,101160.20
2019-05-05T02:34:36.637Z,101168.56
2019-05-05T02:35:16.450Z,101164.78
2019-05-05T02:35:55.622Z,101164.78
2019-05-05T02:36:39.964Z,101161.81
2019-05-05T02:37:16.530Z,101158.31
2019-05-05T02:37:55.545Z,101161.27
2019-05-05T02:38:38.485Z,101155.61
2019-05-05T02:39:16.013Z,101158.58
2019-05-05T02:40:02.299Z,101153.45
2019-05-05T02:40:31.634Z,101149.41
2019-05-05T02:41:09.309Z,101151.57
2019-05-05T02:41:46.565Z,101150.48
2019-05-05T02:42:25.189Z,101145.94
2019-05-05T02:43:01.437Z,101150.78
2019-05-05T02:43:38.898Z,101148.63
2019-05-05T02:44:18.226Z,101145.93
2019-05-05T02:44:55.435Z,101148.63
2019-05-05T02:46:35.957Z,101140.27
2019-05-05T02:47:25.885Z,101140.80
2019-05-05T02:48:15.224Z,101142.16
2019-05-05T02:48:51.989Z,101140.00
2019-05-05T02:49:27.929Z,101139.45
2019-05-05T02:50:06.837Z,101145.14
2019-05-05T02:51:00.137Z,101141.61
2019-05-05T02:51:35.484Z,101137.06
2019-05-05T02:52:14.917Z,101139.75
2019-05-05T02:52:49.973Z,101136.50
2019-05-05T02:53:34.130Z,101140.54
2019-05-05T02:54:10.526Z,101136.50
2019-05-05T02:54:47.348Z,101136.22
2019-05-05T02:55:23.579Z,101134.89
2019-05-05T02:56:04.291Z,101131.12
2019-05-05T02:56:46.543Z,101130.04
2019-05-05T02:57:29.525Z,101126.80
2019-05-05T02:58:08.043Z,101127.88
2019-05-05T02:58:45.010Z,101125.72
2019-05-05T02:59:28.639Z,101127.33
2019-05-05T03:00:27.376Z,101130.30
2019-05-05T03:01:27.668Z,101125.98
2019-05-05T03:02:25.023Z,101132.72
2019-05-05T03:03:01.668Z,101129.75
2019-05-05T03:03:40.035Z,101128.95
2019-05-05T03:04:16.203Z,101125.72
2019-05-05T03:04:53.641Z,101132.19
2019-05-05T03:05:30.625Z,101132.72
2019-05-05T03:06:07.468Z,101128.41
2019-05-05T03:06:48.213Z,101128.41
2019-05-05T03:07:26.586Z,101132.72
2019-05-05T03:08:04.814Z,101132.16
2019-05-05T03:08:43.955Z,101129.73
2019-05-05T03:09:21.448Z,101130.00
2019-05-05T03:10:01.032Z,101129.98
2019-05-05T03:10:37.842Z,101127.56
2019-05-05T03:11:16.288Z,101128.09
2019-05-05T03:11:54.194Z,101121.36
2019-05-05T03:12:34.489Z,101121.89
2019-05-05T03:13:10.305Z,101123.50
2019-05-05T03:13:51.201Z,101116.77
2019-05-05T03:14:31.739Z,101118.37
2019-05-05T03:15:09.498Z,101114.89
2019-05-05T03:15:55.614Z,101111.37
2019-05-05T03:16:36.317Z,101110.02
2019-05-05T03:17:19.443Z,101107.31
2019-05-05T03:17:55.490Z,101107.03
2019-05-05T03:18:33.752Z,101107.28
2019-05-05T03:19:14.112Z,101103.50
2019-05-05T03:19:55.083Z,101096.75
2019-05-05T03:20:31.823Z,101096.19
2019-05-05T03:21:08.436Z,101101.30
2019-05-05T03:21:46.322Z,101092.42
2019-05-05T03:22:23.710Z,101095.64
2019-05-05T03:23:04.211Z,101086.73
2019-05-05T03:24:00.936Z,101085.65
2019-05-05T03:24:37.711Z,101085.37
2019-05-05T03:25:14.537Z,101084.00
2019-05-05T03:25:54.447Z,101086.44
2019-05-05T03:26:34.011Z,101085.61
2019-05-05T03:27:11.236Z,101081.55
2019-05-05T03:27:47.528Z,101078.29
2019-05-05T03:28:28.639Z,101078.29
2019-05-05T03:29:06.462Z,101074.52
2019-05-05T03:29:44.387Z,101075.05
2019-05-05T03:30:21.638Z,101076.15
2019-05-05T03:31:04.918Z,101067.77
2019-05-05T03:31:40.345Z,101067.77
2019-05-05T03:32:17.010Z,101072.08
2019-05-05T03:32:55.916Z,101074.23
2019-05-05T03:33:35.170Z,101072.33
2019-05-05T03:34:11.080Z,101069.61
2019-05-05T03:34:49.831Z,101069.61
2019-05-05T03:35:28.445Z,101063.39
2019-05-05T03:36:04.583Z,101063.39
2019-05-05T03:36:40.988Z,101062.82
2019-05-05T03:37:18.025Z,101066.61
2019-05-05T03:37:54.624Z,101062.82
2019-05-05T03:38:31.373Z,101065.78
2019-05-05T03:39:14.506Z,101065.78
2019-05-05T03:39:55.979Z,101064.44
2019-05-05T03:40:36.958Z,101066.30
2019-05-05T03:41:34.434Z,101066.30
2019-05-05T03:42:36.064Z,101067.66
2019-05-05T03:43:23.672Z,101066.05
2019-05-05T03:44:04.882Z,101061.21
2019-05-05T03:44:58.759Z,101072.00
2019-05-05T03:46:04.303Z,101062.56
2019-05-05T03:46:40.883Z,101067.70
2019-05-05T03:47:18.012Z,101057.98
2019-05-05T03:47:54.282Z,101059.86
2019-05-05T03:48:31.674Z,101058.80
2019-05-05T03:49:11.257Z,101058.80
2019-05-05T03:49:53.607Z,101057.20
2019-05-05T03:50:29.860Z,101054.77
2019-05-05T03:51:18.107Z,101052.89
2019-05-05T03:51:44.088Z,101056.14
2019-05-05T03:52:20.806Z,101049.94
2019-05-05T03:52:59.617Z,101049.12
2019-05-05T03:53:35.821Z,101049.94
2019-05-05T03:54:11.967Z,101055.63
2019-05-05T03:54:50.417Z,101047.27
2019-05-05T03:55:31.403Z,101053.48
2019-05-05T03:56:07.578Z,101050.23
2019-05-05T03:56:44.309Z,101047.81
2019-05-05T03:57:20.575Z,101047.81
2019-05-05T03:57:58.674Z,101046.20
2019-05-05T03:58:35.031Z,101042.67
2019-05-05T03:59:11.230Z,101038.92
2019-05-05T03:59:49.661Z,101038.09
2019-05-05T04:00:50.227Z,101038.36
2019-05-05T04:01:54.589Z,101036.18
2019-05-05T04:02:58.272Z,101034.00
2019-05-05T04:03:34.405Z,101029.41
2019-05-05T04:04:27.176Z,101028.30
2019-05-05T04:05:23.536Z,101031.52
2019-05-05T04:06:04.386Z,101026.65
2019-05-05T04:06:44.564Z,101026.09
2019-05-05T04:07:20.855Z,101026.09
2019-05-05T04:07:57.323Z,101023.65
2019-05-05T04:08:33.891Z,101022.82
2019-05-05T04:09:10.003Z,101019.33
2019-05-05T04:09:46.167Z,101023.06
2019-05-05T04:10:24.393Z,101023.06
2019-05-05T04:11:05.047Z,101022.50
2019-05-05T04:11:41.679Z,101011.70
2019-05-05T04:12:18.136Z,101003.60
2019-05-05T04:12:58.162Z,101015.95
2019-05-05T04:13:34.594Z,101009.45
2019-05-05T04:14:14.219Z,101017.52
2019-05-05T04:14:50.639Z,101013.73
2019-05-05T04:15:26.809Z,101010.78
2019-05-05T04:16:26.423Z,101009.12
2019-05-05T04:17:29.035Z,101009.12
2019-05-05T04:18:24.057Z,101006.94
2019-05-05T04:19:03.670Z,101006.94
2019-05-05T04:19:43.516Z,101002.31
2019-05-05T04:20:45.068Z,100987.52
2019-05-05T04:21:39.694Z,101000.65
2019-05-05T04:22:15.718Z,100997.11
2019-05-05T04:22:54.080Z,100986.60
2019-05-05T04:23:33.685Z,100986.60
2019-05-05T04:24:10.590Z,100985.73
2019-05-05T04:24:49.038Z,100977.38
2019-05-05T04:25:31.742Z,100985.71
2019-05-05T04:26:09.958Z,100981.08
2019-05-05T04:26:48.948Z,100978.93
2019-05-05T04:27:25.316Z,100978.93
2019-05-05T04:28:01.398Z,100966.26
2019-05-05T04:28:38.347Z,100970.80
2019-05-05T04:29:14.292Z,100970.80
2019-05-05T04:29:55.551Z,100978.12
2019-05-05T04:30:33.867Z,100968.61
2019-05-05T04:31:10.119Z,100968.61
2019-05-05T04:31:46.112Z,100964.04
2019-05-05T04:32:24.353Z,100962.37
2019-05-05T04:33:00.304Z,100962.37
2019-05-05T04:33:46.279Z,100966.10
2019-05-05T04:34:43.864Z,100966.10
2019-05-05T04:35:34.051Z,100956.91
2019-05-05T04:36:10.397Z,100959.58
2019-05-05T04:36:46.433Z,100959.58
2019-05-05T04:37:23.950Z,100955.36
2019-05-05T04:38:00.233Z,100963.47
2019-05-05T04:38:37.526Z,100959.67
2019-05-05T04:39:14.399Z,100959.67
2019-05-05T04:39:50.570Z,100961.53
2019-05-05T04:40:26.590Z,100961.53
2019-05-05T04:41:03.527Z,100963.44
2019-05-05T04:41:44.032Z,100963.72
2019-05-05T04:42:24.640Z,100963.98
2019-05-05T04:43:17.986Z,100963.98
2019-05-05T04:43:55.654Z,100959.37
2019-05-05T04:44:34.712Z,100960.95
2019-05-05T04:45:10.821Z,100966.62
2019-05-05T04:45:51.080Z,100966.62
2019-05-05T04:46:28.267Z,100963.63
2019-05-05T04:47:11.514Z,100962.78
2019-05-05T04:47:54.181Z,100962.78
2019-05-05T04:48:37.023Z,100954.39
2019-05-05T04:49:26.629Z,100948.19
2019-05-05T04:50:18.317Z,100948.19
2019-05-05T04:51:15.139Z,100935.25
2019-05-05T04:51:53.791Z,100934.16
2019-05-05T04:52:30.231Z,100934.16
2019-05-05T04:53:08.625Z,100946.00
2019-05-05T04:54:03.725Z,100941.10
2019-05-05T04:54:55.477Z,100941.87
2019-05-05T04:55:31.233Z,100943.99
2019-05-05T04:56:11.540Z,100943.99
2019-05-05T04:56:48.927Z,100941.00
2019-05-05T04:57:29.584Z,100941.00
2019-05-05T04:58:05.958Z,100934.75
2019-05-05T04:58:43.951Z,100938.25
2019-05-05T04:59:19.823Z,100932.52
2019-05-05T05:00:04.983Z,100932.52
2019-05-05T05:00:43.998Z,100921.70
2019-05-05T05:01:20.018Z,100922.73
2019-05-05T05:02:07.430Z,100928.49
2019-05-05T05:02:59.445Z,100923.34
2019-05-05T05:04:06.371Z,100923.34
2019-05-05T05:04:55.227Z,100920.13
2019-05-05T05:05:50.976Z,100911.98
2019-05-05T05:06:36.819Z,100911.98
2019-05-05T05:07:13.663Z,100911.13
2019-05-05T05:07:57.819Z,100911.63
2019-05-05T05:08:33.824Z,100913.48
2019-05-05T05:09:10.198Z,100907.48
2019-05-05T05:09:46.355Z,100905.44
2019-05-05T05:10:24.049Z,100905.44
2019-05-05T05:11:00.317Z,100900.79
2019-05-05T05:11:41.378Z,100900.94
2019-05-05T05:12:20.006Z,100900.94
2019-05-05T05:12:55.990Z,100890.66
2019-05-05T05:13:32.016Z,100881.45
2019-05-05T05:14:08.118Z,100890.94
2019-05-05T05:14:44.347Z,100893.58
2019-05-05T05:15:20.250Z,100889.62
2019-05-05T05:15:57.675Z,100882.87
2019-05-05T05:16:37.495Z,100885.38
2019-05-05T05:17:19.943Z,100893.39
2019-05-05T05:18:04.827Z,100887.22
2019-05-05T05:18:41.090Z,100881.18
2019-05-05T05:19:17.331Z,100882.32
2019-05-05T05:19:54.243Z,100883.77
2019-05-05T05:20:33.846Z,100883.98
2019-05-05T05:21:14.541Z,100884.70
2019-05-05T05:21:59.375Z,100878.92
2019-05-05T05:22:28.407Z,100881.41
2019-05-05T05:23:07.101Z,100880.84
2019-05-05T05:23:44.654Z,100881.70
2019-05-05T05:24:21.261Z,100884.83
2019-05-05T05:24:57.982Z,100877.80
2019-05-05T05:25:34.771Z,100881.63
2019-05-05T05:26:11.248Z,100880.02
2019-05-05T05:26:48.207Z,100883.28
2019-05-05T05:27:25.398Z,100883.03
2019-05-05T05:28:03.983Z,100881.95
2019-05-05T05:28:40.533Z,100878.75
2019-05-05T05:29:19.882Z,100875.80
2019-05-05T05:29:57.888Z,100874.69
2019-05-05T05:30:34.693Z,100874.13
2019-05-05T05:31:13.951Z,100873.39
2019-05-05T05:31:50.359Z,100871.23
2019-05-05T05:32:28.408Z,100868.77
2019-05-05T05:33:06.420Z,100865.81
2019-05-05T05:33:44.240Z,100865.69
2019-05-05T05:34:20.772Z,100859.68
2019-05-05T05:34:57.727Z,100855.30
2019-05-05T05:35:34.002Z,100859.31
2019-05-05T05:36:11.928Z,100854.63
2019-05-05T05:36:48.021Z,100855.67
2019-05-05T05:37:24.197Z,100854.28
2019-05-05T05:38:01.349Z,100860.69
2019-05-05T05:38:38.514Z,100858.72
2019-05-05T05:39:44.585Z,100854.06
2019-05-05T05:40:34.279Z,100845.06
2019-05-05T05:41:14.001Z,100851.20
2019-05-05T05:41:50.307Z,100853.86
2019-05-05T05:42:26.337Z,100850.21
2019-05-05T05:43:04.690Z,100852.55
2019-05-05T05:43:57.835Z,100848.19
2019-05-05T05:44:59.027Z,100846.13
2019-05-05T05:45:50.408Z,100848.16
2019-05-05T05:46:43.941Z,100849.08
2019-05-05T05:47:26.172Z,100840.17
2019-05-05T05:48:16.581Z,100840.32
2019-05-05T05:49:20.898Z,100839.11
2019-05-05T05:50:16.890Z,100835.31
2019-05-05T05:51:00.430Z,100836.57
2019-05-05T05:51:44.603Z,100838.13
2019-05-05T05:52:21.451Z,100838.27
2019-05-05T05:52:57.931Z,100838.34
2019-05-05T05:53:34.949Z,100839.73
2019-05-05T05:54:11.779Z,100836.45
2019-05-05T05:54:47.852Z,100831.34
2019-05-05T05:55:24.493Z,100835.97
2019-05-05T05:56:04.335Z,100832.45
2019-05-05T05:56:41.165Z,100830.75
2019-05-05T05:57:17.225Z,100830.75
2019-05-05T05:57:54.308Z,100831.80
2019-05-05T05:58:31.210Z,100831.73
2019-05-05T05:59:07.265Z,100823.52
2019-05-05T05:59:44.527Z,100819.63
2019-05-05T06:00:20.597Z,100821.09
2019-05-05T06:00:58.157Z,100827.20
2019-05-05T06:01:34.712Z,100821.36
2019-05-05T06:02:13.467Z,100818.02
2019-05-05T06:02:49.075Z,100821.05
2019-05-05T06:03:25.458Z,100817.21
2019-05-05T06:04:03.951Z,100815.92
2019-05-05T06:04:40.757Z,100814.81
2019-05-05T06:05:17.409Z,100810.25
2019-05-05T06:05:54.112Z,100808.66
2019-05-05T06:06:31.023Z,100809.04
2019-05-05T06:07:07.017Z,100808.00
2019-05-05T06:07:44.343Z,100807.52
2019-05-05T06:08:21.310Z,100806.16
2019-05-05T06:08:58.068Z,100807.41
2019-05-05T06:09:34.596Z,100803.61
2019-05-05T06:10:22.176Z,100806.56
2019-05-05T06:10:49.831Z,100800.02
2019-05-05T06:11:26.205Z,100800.75
2019-05-05T06:12:03.569Z,100798.38
2019-05-05T06:12:41.324Z,100801.99
2019-05-05T06:13:17.417Z,100799.59
2019-05-05T06:13:54.489Z,100803.98
2019-05-05T06:14:33.853Z,100799.66
2019-05-05T06:15:10.192Z,100796.54
2019-05-05T06:15:46.727Z,100796.22
2019-05-05T06:16:23.584Z,100795.42
2019-05-05T06:17:00.020Z,100795.42
2019-05-05T06:17:36.406Z,100792.39
2019-05-05T06:18:13.772Z,100791.74
2019-05-05T06:19:03.494Z,100789.13
2019-05-05T06:19:39.203Z,100793.41
2019-05-05T06:20:15.769Z,100786.17
2019-05-05T06:20:53.752Z,100789.77
2019-05-05T06:21:30.410Z,100782.98
2019-05-05T06:22:06.375Z,100779.63
2019-05-05T06:22:44.685Z,100778.95
2019-05-05T06:23:24.213Z,100778.98
2019-05-05T06:24:00.365Z,100779.87
2019-05-05T06:24:36.577Z,100781.79
2019-05-05T06:25:15.964Z,100782.42
2019-05-05T06:25:57.673Z,100779.70
2019-05-05T06:26:36.643Z,100778.11
2019-05-05T06:27:14.323Z,100779.55
2019-05-05T06:27:57.306Z,100782.50
2019-05-05T06:28:36.860Z,100775.70
2019-05-05T06:29:14.584Z,100776.66
2019-05-05T06:29:50.890Z,100778.02
2019-05-05T06:30:26.973Z,100776.19
2019-05-05T06:31:04.991Z,100769.92
2019-05-05T06:31:44.623Z,100769.44
2019-05-05T06:32:19.783Z,100768.08
2019-05-05T06:32:55.883Z,100763.81
2019-05-05T06:33:31.763Z,100764.92
2019-05-05T06:34:08.070Z,100759.89
2019-05-05T06:34:46.303Z,100761.01
2019-05-05T06:35:24.316Z,100760.52
2019-05-05T06:36:00.236Z,100760.52
2019-05-05T06:36:36.985Z,100758.05
2019-05-05T06:37:14.517Z,100762.13
2019-05-05T06:37:54.777Z,100759.41
2019-05-05T06:38:31.468Z,100758.30
2019-05-05T06:39:08.858Z,100757.42
2019-05-05T06:39:45.496Z,100757.26
2019-05-05T06:40:23.363Z,100755.25
2019-05-05T06:41:10.509Z,100757.36
2019-05-05T06:41:53.949Z,100754.01
2019-05-05T06:42:43.419Z,100757.36
2019-05-05T06:43:38.907Z,100744.73
2019-05-05T06:44:34.544Z,100739.48
2019-05-05T06:45:29.652Z,100746.58
2019-05-05T06:46:06.750Z,100741.82
2019-05-05T06:47:01.036Z,100733.52
2019-05-05T06:47:44.453Z,100738.05
2019-05-05T06:48:21.020Z,100735.06
2019-05-05T06:48:57.303Z,100738.56
2019-05-05T06:49:34.558Z,100733.27
2019-05-05T06:50:10.811Z,100731.83
2019-05-05T06:50:47.429Z,100730.65
2019-05-05T06:51:24.565Z,100725.67
2019-05-05T06:52:00.696Z,100725.53
2019-05-05T06:52:44.125Z,100721.31
2019-05-05T06:53:16.147Z,100721.78
2019-05-05T06:53:53.862Z,100720.27
2019-05-05T06:54:29.812Z,100723.61
2019-05-05T06:55:06.578Z,100719.23
2019-05-05T06:55:54.267Z,100717.83
2019-05-05T06:56:30.221Z,100717.51
2019-05-05T06:57:06.396Z,100712.11
2019-05-05T06:57:44.307Z,100719.53
2019-05-05T06:58:21.017Z,100717.88
2019-05-05T06:58:58.425Z,100721.31
2019-05-05T06:59:35.330Z,100714.36
2019-05-05T07:00:13.851Z,100713.08
2019-05-05T07:00:50.145Z,100718.66
2019-05-05T07:01:26.616Z,100717.16
2019-05-05T07:02:04.274Z,100711.77
2019-05-05T07:02:40.239Z,100711.48
2019-05-05T07:03:16.970Z,100708.99
2019-05-05T07:03:54.158Z,100707.77
2019-05-05T07:04:30.514Z,100709.22
2019-05-05T07:05:07.113Z,100710.88
2019-05-05T07:05:43.831Z,100712.14
2019-05-05T07:06:20.319Z,100707.52
2019-05-05T07:06:57.270Z,100711.08
2019-05-05T07:07:34.398Z,100707.80
2019-05-05T07:08:10.924Z,100703.41
2019-05-05T07:08:47.446Z,100704.80
2019-05-05T07:09:24.487Z,100700.48
2019-05-05T07:10:00.660Z,100703.25
2019-05-05T07:10:37.553Z,100703.66
2019-05-05T07:11:14.584Z,100707.45
2019-05-05T07:11:50.946Z,100700.75
2019-05-05T07:12:27.397Z,100698.80
2019-05-05T07:13:04.991Z,100693.19
2019-05-05T07:13:41.251Z,100698.73
2019-05-05T07:14:17.274Z,100694.02
2019-05-05T07:14:53.899Z,100691.22
2019-05-05T07:15:30.553Z,100688.27
2019-05-05T07:16:12.235Z,100689.09
2019-05-05T07:16:48.802Z,100687.22
2019-05-05T07:17:25.466Z,100681.56
2019-05-05T07:18:03.597Z,100686.06
2019-05-05T07:18:39.646Z,100677.77
2019-05-05T07:19:15.709Z,100681.64
2019-05-05T07:19:54.201Z,100685.86
2019-05-05T07:20:31.169Z,100678.12
2019-05-05T07:21:07.264Z,100681.54
2019-05-05T07:21:43.707Z,100681.45
2019-05-05T07:22:20.776Z,100682.42
2019-05-05T07:23:02.058Z,100683.05
2019-05-05T07:23:35.802Z,100680.50
2019-05-05T07:24:11.809Z,100680.22
2019-05-05T07:24:48.408Z,100681.54
2019-05-05T07:25:24.503Z,100678.75
2019-05-05T07:26:00.905Z,100678.14
2019-05-05T07:26:37.544Z,100678.70
2019-05-05T07:27:13.981Z,100678.80
2019-05-05T07:27:50.887Z,100677.53
2019-05-05T07:28:28.184Z,100676.50
2019-05-05T07:29:04.640Z,100677.72
2019-05-05T07:29:43.506Z,100674.29
2019-05-05T07:30:19.124Z,100676.37
2019-05-05T07:30:55.145Z,100675.07
2019-05-05T07:31:34.157Z,100674.78
2019-05-05T07:32:19.628Z,100668.41
2019-05-05T07:32:55.975Z,100676.72
2019-05-05T07:33:34.367Z,100669.62
2019-05-05T07:34:16.014Z,100674.35
2019-05-05T07:35:14.997Z,100670.45